createdAt,value
2017-06-28T04:00:26.513Z,18.05
2017-06-28T04:00:51.989Z,17.98
2017-06-28T04:01:17.474Z,18.07
2017-06-28T04:01:42.972Z,18.11
2017-06-28T04:02:08.447Z,18.05
2017-06-28T04:02:33.922Z,18.07
2017-06-28T04:02:59.395Z,18.15
2017-06-28T04:03:24.847Z,18.11
2017-06-28T04:03:50.340Z,18.07
2017-06-28T04:04:15.833Z,18.08
2017-06-28T04:04:41.304Z,18.04
2017-06-28T04:05:06.784Z,18.05
2017-06-28T04:05:32.283Z,18.07
2017-06-28T04:05:57.774Z,18.03
2017-06-28T04:06:23.262Z,18.07
2017-06-28T04:06:48.745Z,18.1
2017-06-28T04:07:14.215Z,18.04
2017-06-28T04:07:39.668Z,18.1
2017-06-28T04:08:05.134Z,18.13
2017-06-28T04:08:30.596Z,18.05
2017-06-28T04:08:56.140Z,18.07
2017-06-28T04:09:21.640Z,18.1
2017-06-28T04:09:47.098Z,18.07
2017-06-28T04:10:12.555Z,18.04
2017-06-28T04:10:38.053Z,18.1
2017-06-28T04:11:03.544Z,18.07
2017-06-28T04:11:29.029Z,18.08
2017-06-28T04:11:54.499Z,18.11
2017-06-28T04:12:19.980Z,18.08
2017-06-28T04:12:45.438Z,18.1
2017-06-28T04:13:10.904Z,18.2
2017-06-28T04:13:36.367Z,18.1
2017-06-28T04:14:01.849Z,18.2
2017-06-28T04:14:27.302Z,18.1
2017-06-28T04:14:52.771Z,18.19
2017-06-28T04:15:18.258Z,18.15
2017-06-28T04:15:43.724Z,18.18
2017-06-28T04:16:09.167Z,18.07
2017-06-28T04:16:34.648Z,18.2
2017-06-28T04:17:00.113Z,18.23
2017-06-28T04:17:25.618Z,18.07
2017-06-28T04:17:51.161Z,18.2
2017-06-28T04:18:39.495Z,18.19
2017-06-28T04:19:04.939Z,18.1
2017-06-28T04:19:30.431Z,18.19
2017-06-28T04:19:55.906Z,18.1
2017-06-28T04:20:21.360Z,18.18
2017-06-28T04:20:46.834Z,18.19
2017-06-28T04:21:12.312Z,18.22
2017-06-28T04:21:37.801Z,18.11
2017-06-28T04:22:03.258Z,18.19
2017-06-28T04:22:28.789Z,18.13
2017-06-28T04:22:54.242Z,18.05
2017-06-28T04:23:19.715Z,18.25
2017-06-28T04:23:45.168Z,18.25
2017-06-28T04:24:10.631Z,18.22
2017-06-28T04:24:36.095Z,18.16
2017-06-28T04:25:01.594Z,18.19
2017-06-28T04:25:27.068Z,18.2
2017-06-28T04:25:52.540Z,18.16
2017-06-28T04:26:18.006Z,18.16
2017-06-28T04:26:43.473Z,18.1
2017-06-28T04:27:08.964Z,18.11
2017-06-28T04:27:34.441Z,18.08
2017-06-28T04:27:59.870Z,18.13
2017-06-28T04:28:25.336Z,18.16
2017-06-28T04:28:51.055Z,18.23
2017-06-28T04:29:17.267Z,18.2
2017-06-28T04:29:44.902Z,18.22
2017-06-28T04:30:10.415Z,18.13
2017-06-28T04:30:36.659Z,18.22
2017-06-28T04:31:02.065Z,18.2
2017-06-28T04:31:27.496Z,18.18
2017-06-28T04:31:52.961Z,18.25
2017-06-28T04:32:18.424Z,18.23
2017-06-28T04:32:43.922Z,18.19
2017-06-28T04:33:09.393Z,18.22
2017-06-28T04:33:34.861Z,18.22
2017-06-28T04:34:00.913Z,18.26
2017-06-28T04:34:26.295Z,18.2
2017-06-28T04:34:53.017Z,18.2
2017-06-28T04:35:18.382Z,18.15
2017-06-28T04:35:43.817Z,18.25
2017-06-28T04:36:09.297Z,18.2
2017-06-28T04:36:34.887Z,18.25
2017-06-28T04:37:00.651Z,18.22
2017-06-28T04:37:26.215Z,18.31
2017-06-28T04:37:51.692Z,18.26
2017-06-28T04:38:17.162Z,18.23
2017-06-28T04:38:42.633Z,18.19
2017-06-28T04:39:08.078Z,18.31
2017-06-28T04:39:33.551Z,18.25
2017-06-28T04:39:59.023Z,18.33
2017-06-28T04:40:24.481Z,18.26
2017-06-28T04:40:49.953Z,18.23
2017-06-28T04:41:15.411Z,18.29
2017-06-28T04:41:41.022Z,18.29
2017-06-28T04:42:06.412Z,18.31
2017-06-28T04:42:32.820Z,18.29
2017-06-28T04:42:59.410Z,18.34
2017-06-28T04:43:25.466Z,18.29
2017-06-28T04:43:50.841Z,18.29
2017-06-28T04:44:16.331Z,18.35
2017-06-28T04:44:41.774Z,18.34
2017-06-28T04:45:07.249Z,18.34
2017-06-28T04:45:32.729Z,18.34
2017-06-28T04:45:58.233Z,18.33
2017-06-28T04:46:23.701Z,18.31
2017-06-28T04:46:49.421Z,18.43
2017-06-28T04:47:15.389Z,18.34
2017-06-28T04:47:41.403Z,18.41
2017-06-28T04:48:06.882Z,18.38
2017-06-28T04:48:32.449Z,18.4
2017-06-28T04:48:57.941Z,18.41
2017-06-28T04:49:24.326Z,18.37
2017-06-28T04:49:50.262Z,18.45
2017-06-28T04:50:15.879Z,18.38
2017-06-28T04:50:41.504Z,18.4
2017-06-28T04:51:06.963Z,18.43
2017-06-28T04:51:32.742Z,18.44
2017-06-28T04:51:58.227Z,18.4
2017-06-28T04:52:23.688Z,18.44
2017-06-28T04:52:49.190Z,18.43
2017-06-28T04:53:14.660Z,18.47
2017-06-28T04:53:40.080Z,18.43
2017-06-28T04:54:05.586Z,18.4
2017-06-28T04:54:31.043Z,18.44
2017-06-28T04:54:56.658Z,18.44
2017-06-28T04:55:22.027Z,18.43
2017-06-28T04:55:47.499Z,18.5
2017-06-28T04:56:12.989Z,18.44
2017-06-28T04:56:38.446Z,18.49
2017-06-28T04:57:03.882Z,18.44
2017-06-28T04:57:29.391Z,18.44
2017-06-28T04:57:54.826Z,18.47
2017-06-28T04:58:20.282Z,18.49
2017-06-28T04:58:45.932Z,18.5
2017-06-28T04:59:11.389Z,18.53
2017-06-28T04:59:36.823Z,18.47
2017-06-28T05:00:02.330Z,18.5
2017-06-28T05:00:28.282Z,18.49
2017-06-28T05:00:53.787Z,18.5
2017-06-28T05:01:19.268Z,18.47
2017-06-28T05:01:44.892Z,18.53
2017-06-28T05:02:10.193Z,18.55
2017-06-28T05:02:35.719Z,18.52
2017-06-28T05:03:01.196Z,18.44
2017-06-28T05:03:26.706Z,18.5
2017-06-28T05:03:52.079Z,18.52
2017-06-28T05:04:17.563Z,18.49
2017-06-28T05:04:43.025Z,18.5
2017-06-28T05:05:08.536Z,18.52
2017-06-28T05:05:33.983Z,18.55
2017-06-28T05:05:59.449Z,18.56
2017-06-28T05:06:24.896Z,18.53
2017-06-28T05:06:50.387Z,18.55
2017-06-28T05:07:15.837Z,18.55
2017-06-28T05:07:41.329Z,18.52
2017-06-28T05:08:06.773Z,18.5
2017-06-28T05:08:32.238Z,18.5
2017-06-28T05:08:57.644Z,18.53
2017-06-28T05:09:23.122Z,18.6
2017-06-28T05:09:48.746Z,18.58
2017-06-28T05:10:14.278Z,18.62
2017-06-28T05:10:39.740Z,18.53
2017-06-28T05:11:05.500Z,18.58
2017-06-28T05:11:30.732Z,18.55
2017-06-28T05:11:56.201Z,18.53
2017-06-28T05:12:21.748Z,18.58
2017-06-28T05:12:47.088Z,18.58
2017-06-28T05:13:12.795Z,18.65
2017-06-28T05:13:38.273Z,18.53
2017-06-28T05:14:03.769Z,18.53
2017-06-28T05:14:29.228Z,18.56
2017-06-28T05:14:54.677Z,18.53
2017-06-28T05:15:20.150Z,18.58
2017-06-28T05:15:45.981Z,18.56
2017-06-28T05:16:11.464Z,18.52
2017-06-28T05:16:36.918Z,18.65
2017-06-28T05:17:02.393Z,18.55
2017-06-28T05:17:27.872Z,18.56
2017-06-28T05:17:53.327Z,18.56
2017-06-28T05:18:18.782Z,18.52
2017-06-28T05:18:44.304Z,18.56
2017-06-28T05:19:09.771Z,18.5
2017-06-28T05:19:35.197Z,18.52
2017-06-28T05:20:00.649Z,18.52
2017-06-28T05:20:26.122Z,18.5
2017-06-28T05:20:51.897Z,18.5
2017-06-28T05:21:17.675Z,18.43
2017-06-28T05:21:43.152Z,18.5
2017-06-28T05:22:08.800Z,18.45
2017-06-28T05:22:34.297Z,18.53
2017-06-28T05:23:00.255Z,18.53
2017-06-28T05:23:27.318Z,18.53
2017-06-28T05:23:52.864Z,18.53
2017-06-28T05:24:18.304Z,18.47
2017-06-28T05:24:43.732Z,18.49
2017-06-28T05:25:09.228Z,18.49
2017-06-28T05:25:34.726Z,18.44
2017-06-28T05:26:00.198Z,18.53
2017-06-28T05:26:26.511Z,18.49
2017-06-28T05:26:52.004Z,18.47
2017-06-28T05:27:17.486Z,18.49
2017-06-28T05:27:42.938Z,18.44
2017-06-28T05:28:08.383Z,18.45
2017-06-28T05:28:33.920Z,18.47
2017-06-28T05:28:59.430Z,18.47
2017-06-28T05:29:24.930Z,18.49
2017-06-28T05:29:50.392Z,18.44
2017-06-28T05:30:15.863Z,18.5
2017-06-28T05:30:41.301Z,18.41
2017-06-28T05:31:06.772Z,18.49
2017-06-28T05:31:32.294Z,18.47
2017-06-28T05:31:57.761Z,18.49
2017-06-28T05:32:23.210Z,18.43
2017-06-28T05:32:48.666Z,18.44
2017-06-28T05:33:14.126Z,18.44
2017-06-28T05:33:39.611Z,18.44
2017-06-28T05:34:05.077Z,18.47
2017-06-28T05:34:30.555Z,18.44
2017-06-28T05:34:56.041Z,18.41
2017-06-28T05:35:21.471Z,18.47
2017-06-28T05:35:46.922Z,18.41
2017-06-28T05:36:12.403Z,18.43
2017-06-28T05:36:37.888Z,18.45
2017-06-28T05:37:03.339Z,18.43
2017-06-28T05:37:28.787Z,18.4
2017-06-28T05:37:54.266Z,18.43
2017-06-28T05:38:19.727Z,18.44
2017-06-28T05:38:45.202Z,18.44
2017-06-28T05:39:10.683Z,18.43
2017-06-28T05:39:36.179Z,18.41
2017-06-28T05:40:01.692Z,18.44
2017-06-28T05:40:27.171Z,18.44
2017-06-28T05:40:52.665Z,18.44
2017-06-28T05:41:18.123Z,18.4
2017-06-28T05:41:43.607Z,18.43
2017-06-28T05:42:09.084Z,18.5
2017-06-28T05:42:34.589Z,18.47
2017-06-28T05:43:00.056Z,18.47
2017-06-28T05:43:25.530Z,18.44
2017-06-28T05:43:50.991Z,18.4
2017-06-28T05:44:16.492Z,18.43
2017-06-28T05:44:41.983Z,18.49
2017-06-28T05:45:07.465Z,18.4
2017-06-28T05:45:32.937Z,18.55
2017-06-28T05:45:58.417Z,18.47
2017-06-28T05:46:23.880Z,18.5
2017-06-28T05:46:49.371Z,18.5
2017-06-28T05:47:14.830Z,18.49
2017-06-28T05:47:40.343Z,18.5
2017-06-28T05:48:05.844Z,18.5
2017-06-28T05:48:31.273Z,18.55
2017-06-28T05:48:56.740Z,18.47
2017-06-28T05:49:22.234Z,18.58
2017-06-28T05:49:47.758Z,18.56
2017-06-28T05:50:13.257Z,18.58
2017-06-28T05:50:38.741Z,18.55
2017-06-28T05:51:04.245Z,18.55
2017-06-28T05:51:29.830Z,18.56
2017-06-28T05:51:55.316Z,18.55
2017-06-28T05:52:20.793Z,18.62
2017-06-28T05:52:46.340Z,18.63
2017-06-28T05:53:11.781Z,18.59
2017-06-28T05:53:37.217Z,18.58
2017-06-28T05:54:02.710Z,18.65
2017-06-28T05:54:28.173Z,18.62
2017-06-28T05:54:53.646Z,18.55
2017-06-28T05:55:19.109Z,18.59
2017-06-28T05:55:44.624Z,18.63
2017-06-28T05:56:10.078Z,18.63
2017-06-28T05:56:35.537Z,18.58
2017-06-28T05:57:00.991Z,18.6
2017-06-28T05:57:26.510Z,18.59
2017-06-28T05:57:52.009Z,18.52
2017-06-28T05:58:17.491Z,18.58
2017-06-28T05:58:42.944Z,18.52
2017-06-28T05:59:08.404Z,18.63
2017-06-28T05:59:33.870Z,18.52
2017-06-28T05:59:59.348Z,18.56
2017-06-28T06:00:24.801Z,18.55
2017-06-28T06:00:50.283Z,18.55
2017-06-28T06:01:15.796Z,18.47
2017-06-28T06:01:41.275Z,18.55
2017-06-28T06:02:06.784Z,18.5
2017-06-28T06:02:32.336Z,18.49
2017-06-28T06:02:57.817Z,18.52
2017-06-28T06:03:23.292Z,18.45
2017-06-28T06:03:48.771Z,18.43
2017-06-28T06:04:14.220Z,18.47
2017-06-28T06:04:39.717Z,18.49
2017-06-28T06:05:37.724Z,18.43
2017-06-28T06:06:03.212Z,18.44
2017-06-28T06:06:28.775Z,18.43
2017-06-28T06:06:54.162Z,18.45
2017-06-28T06:07:19.685Z,18.41
2017-06-28T06:07:45.148Z,18.43
2017-06-28T06:08:43.607Z,18.4
2017-06-28T06:09:09.069Z,18.37
2017-06-28T06:09:34.551Z,18.4
2017-06-28T06:10:00.043Z,18.37
2017-06-28T06:10:25.501Z,18.41
2017-06-28T06:10:50.980Z,18.41
2017-06-28T06:11:16.454Z,18.41
2017-06-28T06:11:41.964Z,18.45
2017-06-28T06:12:07.450Z,18.44
2017-06-28T06:12:33.000Z,18.47
2017-06-28T06:12:58.502Z,18.49
2017-06-28T06:13:23.969Z,18.47
2017-06-28T06:13:49.447Z,18.52
2017-06-28T06:14:14.885Z,18.5
2017-06-28T06:14:40.382Z,18.53
2017-06-28T06:15:05.859Z,18.62
2017-06-28T06:15:31.327Z,18.59
2017-06-28T06:15:56.804Z,18.55
2017-06-28T06:16:22.254Z,18.6
2017-06-28T06:16:47.733Z,18.59
2017-06-28T06:17:13.176Z,18.65
2017-06-28T06:17:38.665Z,18.7
2017-06-28T06:18:04.134Z,18.71
2017-06-28T06:18:29.628Z,18.7
2017-06-28T06:18:55.083Z,18.74
2017-06-28T06:19:20.552Z,18.71
2017-06-28T06:19:46.042Z,18.73
2017-06-28T06:20:11.511Z,18.77
2017-06-28T06:20:36.957Z,18.84
2017-06-28T06:21:02.436Z,18.84
2017-06-28T06:21:27.902Z,18.9
2017-06-28T06:21:53.386Z,18.92
2017-06-28T06:22:18.872Z,18.92
2017-06-28T06:22:44.356Z,18.93
2017-06-28T06:23:09.821Z,18.93
2017-06-28T06:23:35.284Z,19.07
2017-06-28T06:24:00.762Z,18.98
2017-06-28T06:24:26.213Z,19.08
2017-06-28T06:24:51.690Z,19
2017-06-28T06:25:17.149Z,19.08
2017-06-28T06:25:42.652Z,19.15
2017-06-28T06:26:08.112Z,19.15
2017-06-28T06:26:33.579Z,19.11
2017-06-28T06:26:59.044Z,19.15
2017-06-28T06:27:24.567Z,19.24
2017-06-28T06:27:50.054Z,19.22
2017-06-28T06:28:15.493Z,19.22
2017-06-28T06:28:41.008Z,19.24
2017-06-28T06:29:06.482Z,19.27
2017-06-28T06:29:31.943Z,19.29
2017-06-28T06:29:57.425Z,19.29
2017-06-28T06:30:22.870Z,19.3
2017-06-28T06:30:48.381Z,19.31
2017-06-28T06:31:13.874Z,19.24
2017-06-28T06:31:39.336Z,19.24
2017-06-28T06:32:04.821Z,19.26
2017-06-28T06:32:30.289Z,19.22
2017-06-28T06:32:55.764Z,19.3
2017-06-28T06:33:21.227Z,19.29
2017-06-28T06:33:46.694Z,19.27
2017-06-28T06:34:12.146Z,19.29
2017-06-28T06:34:37.668Z,19.3
2017-06-28T06:35:03.127Z,19.36
2017-06-28T06:35:28.602Z,19.37
2017-06-28T06:35:54.060Z,19.26
2017-06-28T06:36:19.543Z,19.22
2017-06-28T06:36:45.030Z,19.19
2017-06-28T06:37:10.496Z,19.18
2017-06-28T06:37:36.000Z,19.26
2017-06-28T06:38:01.450Z,19.15
2017-06-28T06:38:26.946Z,19.12
2017-06-28T06:38:52.392Z,19.22
2017-06-28T06:39:17.860Z,19.12
2017-06-28T06:39:43.366Z,19.12
2017-06-28T06:40:08.855Z,19.07
2017-06-28T06:40:34.350Z,19.07
2017-06-28T06:40:59.789Z,19.07
2017-06-28T06:41:25.251Z,19
2017-06-28T06:41:50.751Z,18.98
2017-06-28T06:42:16.253Z,19
2017-06-28T06:42:41.779Z,18.98
2017-06-28T06:43:07.273Z,18.88
2017-06-28T06:43:32.732Z,19.04
2017-06-28T06:43:58.258Z,18.89
2017-06-28T06:44:23.763Z,18.9
2017-06-28T06:44:49.179Z,18.89
2017-06-28T06:45:14.647Z,18.9
2017-06-28T06:45:40.143Z,18.89
2017-06-28T06:46:05.601Z,18.89
2017-06-28T06:46:31.177Z,18.88
2017-06-28T06:46:56.686Z,18.95
2017-06-28T06:47:22.174Z,18.93
2017-06-28T06:47:47.640Z,18.98
2017-06-28T06:48:13.138Z,18.9
2017-06-28T06:48:38.617Z,18.95
2017-06-28T06:49:04.082Z,18.93
2017-06-28T06:49:29.545Z,18.88
2017-06-28T06:49:55.039Z,19.08
2017-06-28T06:50:20.518Z,18.96
2017-06-28T06:50:45.997Z,19.04
2017-06-28T06:51:11.509Z,19.04
2017-06-28T06:51:37.008Z,19.04
2017-06-28T06:52:02.512Z,19.08
2017-06-28T06:52:27.985Z,19.11
2017-06-28T06:52:53.437Z,19.08
2017-06-28T06:53:18.913Z,19.18
2017-06-28T06:53:44.419Z,19.16
2017-06-28T06:54:09.899Z,19.12
2017-06-28T06:54:35.414Z,19.26
2017-06-28T06:55:00.974Z,19.26
2017-06-28T06:55:26.689Z,19.29
2017-06-28T06:55:52.125Z,19.24
2017-06-28T06:56:17.592Z,19.24
2017-06-28T06:56:43.057Z,19.26
2017-06-28T06:57:08.546Z,19.19
2017-06-28T06:57:33.995Z,19.26
2017-06-28T06:57:59.466Z,19.31
2017-06-28T06:58:24.957Z,19.24
2017-06-28T06:58:50.457Z,19.26
2017-06-28T06:59:15.939Z,19.29
2017-06-28T06:59:41.513Z,19.33
2017-06-28T07:00:06.953Z,19.33
2017-06-28T07:00:32.427Z,19.26
2017-06-28T07:00:57.884Z,19.24
2017-06-28T07:01:23.406Z,19.26
2017-06-28T07:01:48.938Z,19.27
2017-06-28T07:02:14.413Z,19.29
2017-06-28T07:02:39.853Z,19.34
2017-06-28T07:03:05.340Z,19.26
2017-06-28T07:03:30.826Z,19.26
2017-06-28T07:03:56.291Z,19.44
2017-06-28T07:04:21.799Z,19.37
2017-06-28T07:04:47.493Z,19.29
2017-06-28T07:05:12.996Z,19.39
2017-06-28T07:05:38.445Z,19.44
2017-06-28T07:06:03.915Z,19.37
2017-06-28T07:06:29.455Z,19.47
2017-06-28T07:06:54.912Z,19.44
2017-06-28T07:07:20.426Z,19.52
2017-06-28T07:07:45.896Z,19.49
2017-06-28T07:08:11.379Z,19.49
2017-06-28T07:08:36.938Z,19.55
2017-06-28T07:09:02.486Z,19.51
2017-06-28T07:09:27.978Z,19.52
2017-06-28T07:09:53.598Z,19.51
2017-06-28T07:10:19.021Z,19.63
2017-06-28T07:10:44.487Z,19.55
2017-06-28T07:11:09.969Z,19.55
2017-06-28T07:11:35.443Z,19.58
2017-06-28T07:12:00.918Z,19.62
2017-06-28T07:12:26.401Z,19.62
2017-06-28T07:12:51.874Z,19.62
2017-06-28T07:13:17.387Z,19.63
2017-06-28T07:13:42.889Z,19.63
2017-06-28T07:14:08.356Z,19.73
2017-06-28T07:14:33.996Z,19.63
2017-06-28T07:14:59.630Z,19.71
2017-06-28T07:15:25.154Z,19.67
2017-06-28T07:15:50.648Z,19.76
2017-06-28T07:16:16.129Z,19.81
2017-06-28T07:16:41.631Z,19.74
2017-06-28T07:17:07.131Z,19.71
2017-06-28T07:17:32.649Z,19.69
2017-06-28T07:17:58.113Z,19.73
2017-06-28T07:18:23.592Z,19.74
2017-06-28T07:18:49.057Z,19.77
2017-06-28T07:19:14.540Z,19.73
2017-06-28T07:19:40.001Z,19.81
2017-06-28T07:20:05.603Z,19.79
2017-06-28T07:20:31.059Z,19.71
2017-06-28T07:20:56.487Z,19.76
2017-06-28T07:21:21.933Z,19.73
2017-06-28T07:21:47.414Z,19.71
2017-06-28T07:22:12.896Z,19.77
2017-06-28T07:22:38.334Z,19.79
2017-06-28T07:23:03.823Z,19.81
2017-06-28T07:23:29.307Z,19.82
2017-06-28T07:23:54.744Z,19.82
2017-06-28T07:24:20.222Z,19.82
2017-06-28T07:24:45.726Z,19.89
2017-06-28T07:25:11.164Z,19.99
2017-06-28T07:25:36.667Z,19.94
2017-06-28T07:26:02.156Z,20.02
2017-06-28T07:26:27.635Z,19.99
2017-06-28T07:26:53.098Z,20.04
2017-06-28T07:27:18.582Z,20.04
2017-06-28T07:27:44.053Z,20.09
2017-06-28T07:28:09.521Z,20.04
2017-06-28T07:28:35.037Z,20.06
2017-06-28T07:29:00.489Z,20.14
2017-06-28T07:29:25.950Z,20.18
2017-06-28T07:29:51.467Z,20.18
2017-06-28T07:30:16.956Z,20.16
2017-06-28T07:30:42.395Z,20.25
2017-06-28T07:31:07.870Z,20.19
2017-06-28T07:31:33.368Z,20.18
2017-06-28T07:31:58.856Z,20.14
2017-06-28T07:32:24.352Z,20.18
2017-06-28T07:32:49.781Z,20.18
2017-06-28T07:33:15.259Z,20.14
2017-06-28T07:33:40.746Z,20.14
2017-06-28T07:34:06.246Z,20.11
2017-06-28T07:34:31.730Z,20.06
2017-06-28T07:34:57.278Z,20.07
2017-06-28T07:35:22.771Z,20.11
2017-06-28T07:35:48.264Z,20.07
2017-06-28T07:36:13.742Z,20.09
2017-06-28T07:36:39.194Z,20.07
2017-06-28T07:37:04.686Z,20.14
2017-06-28T07:37:30.166Z,20.1
2017-06-28T07:37:55.628Z,20.06
2017-06-28T07:38:21.136Z,20.07
2017-06-28T07:38:46.624Z,20.18
2017-06-28T07:39:12.086Z,20.18
2017-06-28T07:39:37.524Z,20.13
2017-06-28T07:40:03.002Z,20.19
2017-06-28T07:40:28.472Z,20.14
2017-06-28T07:40:53.926Z,20.22
2017-06-28T07:41:19.415Z,20.29
2017-06-28T07:41:44.890Z,20.29
2017-06-28T07:42:10.367Z,20.34
2017-06-28T07:42:35.816Z,20.28
2017-06-28T07:43:01.321Z,20.25
2017-06-28T07:43:26.794Z,20.29
2017-06-28T07:43:52.293Z,20.26
2017-06-28T07:44:17.786Z,20.31
2017-06-28T07:44:43.296Z,20.41
2017-06-28T07:45:08.771Z,20.39
2017-06-28T07:45:34.265Z,20.37
2017-06-28T07:45:59.749Z,20.4
2017-06-28T07:46:25.173Z,20.39
2017-06-28T07:46:50.653Z,20.39
2017-06-28T07:47:16.160Z,20.43
2017-06-28T07:47:41.639Z,20.39
2017-06-28T07:48:07.133Z,20.47
2017-06-28T07:48:32.583Z,20.36
2017-06-28T07:48:58.074Z,20.4
2017-06-28T07:49:23.545Z,20.4
2017-06-28T07:49:49.040Z,20.34
2017-06-28T07:50:14.546Z,20.32
2017-06-28T07:50:40.035Z,20.4
2017-06-28T07:51:05.574Z,20.39
2017-06-28T07:51:31.079Z,20.32
2017-06-28T07:51:56.549Z,20.43
2017-06-28T07:52:22.058Z,20.41
2017-06-28T07:52:47.493Z,20.4
2017-06-28T07:53:13.049Z,20.43
2017-06-28T07:53:38.558Z,20.39
2017-06-28T07:54:04.027Z,20.44
2017-06-28T07:54:29.522Z,20.41
2017-06-28T07:54:55.008Z,20.41
2017-06-28T07:55:20.478Z,20.43
2017-06-28T07:55:45.945Z,20.39
2017-06-28T07:56:11.419Z,20.37
2017-06-28T07:56:36.901Z,20.39
2017-06-28T07:57:02.373Z,20.39
2017-06-28T07:57:27.816Z,20.4
2017-06-28T07:57:53.286Z,20.43
2017-06-28T07:58:18.750Z,20.41
2017-06-28T07:59:16.770Z,20.4
2017-06-28T07:59:42.248Z,20.41
2017-06-28T08:00:07.711Z,20.39
2017-06-28T08:00:33.177Z,20.47
2017-06-28T08:00:58.650Z,20.52
2017-06-28T08:01:24.127Z,20.44
2017-06-28T08:01:49.653Z,20.56
2017-06-28T08:02:15.138Z,20.51
2017-06-28T08:02:40.627Z,20.62
2017-06-28T08:03:06.090Z,20.59
2017-06-28T08:03:31.580Z,20.66
2017-06-28T08:03:57.033Z,20.59
2017-06-28T08:04:22.526Z,20.67
2017-06-28T08:04:48.028Z,20.74
2017-06-28T08:05:13.499Z,20.74
2017-06-28T08:05:38.968Z,20.78
2017-06-28T08:06:04.464Z,20.78
2017-06-28T08:06:29.958Z,20.8
2017-06-28T08:06:55.414Z,20.85
2017-06-28T08:07:20.917Z,20.77
2017-06-28T08:07:46.406Z,20.82
2017-06-28T08:08:11.842Z,20.78
2017-06-28T08:08:37.310Z,20.93
2017-06-28T08:09:02.838Z,20.92
2017-06-28T08:09:28.293Z,20.93
2017-06-28T08:09:53.759Z,20.84
2017-06-28T08:10:19.231Z,20.99
2017-06-28T08:10:44.707Z,21.05
2017-06-28T08:11:10.109Z,20.93
2017-06-28T08:11:35.590Z,20.9
2017-06-28T08:12:01.103Z,20.99
2017-06-28T08:12:26.610Z,21.06
2017-06-28T08:12:52.054Z,21.12
2017-06-28T08:13:17.555Z,21.05
2017-06-28T08:13:43.031Z,20.95
2017-06-28T08:14:08.479Z,21.06
2017-06-28T08:14:33.950Z,21.02
2017-06-28T08:14:59.414Z,20.92
2017-06-28T08:15:24.881Z,21.02
2017-06-28T08:15:50.390Z,20.96
2017-06-28T08:16:15.861Z,20.93
2017-06-28T08:16:41.310Z,20.93
2017-06-28T08:17:06.823Z,20.95
2017-06-28T08:17:32.319Z,21
2017-06-28T08:17:57.803Z,20.92
2017-06-28T08:18:23.292Z,20.92
2017-06-28T08:18:48.752Z,20.92
2017-06-28T08:19:14.233Z,21.05
2017-06-28T08:19:39.740Z,20.95
2017-06-28T08:20:05.209Z,21
2017-06-28T08:20:30.662Z,20.96
2017-06-28T08:20:56.110Z,21.02
2017-06-28T08:21:21.639Z,21.05
2017-06-28T08:21:47.140Z,21.03
2017-06-28T08:22:12.616Z,21.07
2017-06-28T08:22:38.063Z,20.96
2017-06-28T08:23:03.542Z,21.11
2017-06-28T08:23:28.991Z,21
2017-06-28T08:23:54.534Z,21.09
2017-06-28T08:24:19.990Z,21.03
2017-06-28T08:24:45.432Z,21.12
2017-06-28T08:25:10.935Z,21.07
2017-06-28T08:25:36.394Z,21
2017-06-28T08:26:01.917Z,21.06
2017-06-28T08:26:27.399Z,21.06
2017-06-28T08:26:52.865Z,21.07
2017-06-28T08:27:18.330Z,21.14
2017-06-28T08:27:43.796Z,21.05
2017-06-28T08:28:09.336Z,21.06
2017-06-28T08:28:34.838Z,20.99
2017-06-28T08:29:00.311Z,21
2017-06-28T08:29:25.778Z,21.03
2017-06-28T08:29:51.280Z,21
2017-06-28T08:30:16.759Z,21.12
2017-06-28T08:30:42.254Z,20.96
2017-06-28T08:31:07.739Z,21.03
2017-06-28T08:31:33.231Z,20.97
2017-06-28T08:31:58.709Z,21
2017-06-28T08:32:24.147Z,20.93
2017-06-28T08:32:49.665Z,20.87
2017-06-28T08:33:15.166Z,20.87
2017-06-28T08:33:40.681Z,20.9
2017-06-28T08:34:06.140Z,20.9
2017-06-28T08:34:31.625Z,20.96
2017-06-28T08:34:57.088Z,20.9
2017-06-28T08:35:22.623Z,20.95
2017-06-28T08:35:48.086Z,20.88
2017-06-28T08:36:13.569Z,20.95
2017-06-28T08:36:39.002Z,20.93
2017-06-28T08:37:04.468Z,20.88
2017-06-28T08:37:29.944Z,20.92
2017-06-28T08:37:55.437Z,20.92
2017-06-28T08:38:20.914Z,20.88
2017-06-28T08:38:46.425Z,20.9
2017-06-28T08:39:11.892Z,20.92
2017-06-28T08:39:37.388Z,20.95
2017-06-28T08:40:02.888Z,20.88
2017-06-28T08:40:28.372Z,20.88
2017-06-28T08:40:53.828Z,20.96
2017-06-28T08:41:19.353Z,20.97
2017-06-28T08:41:44.818Z,20.93
2017-06-28T08:42:10.268Z,20.92
2017-06-28T08:42:35.792Z,20.93
2017-06-28T08:43:01.327Z,20.95
2017-06-28T08:43:26.778Z,20.96
2017-06-28T08:43:52.292Z,20.96
2017-06-28T08:44:17.784Z,20.9
2017-06-28T08:44:43.266Z,20.88
2017-06-28T08:45:08.725Z,20.93
2017-06-28T08:45:34.186Z,20.95
2017-06-28T08:45:59.637Z,20.99
2017-06-28T08:46:25.151Z,20.99
2017-06-28T08:46:50.601Z,21.05
2017-06-28T08:47:16.095Z,21.07
2017-06-28T08:47:41.628Z,21.02
2017-06-28T08:48:07.105Z,21.12
2017-06-28T08:48:32.579Z,21.03
2017-06-28T08:48:58.076Z,21
2017-06-28T08:49:23.550Z,21.03
2017-06-28T08:49:49.022Z,21
2017-06-28T08:50:14.542Z,21.02
2017-06-28T08:50:40.062Z,21.11
2017-06-28T08:51:05.537Z,21.09
2017-06-28T08:51:31.014Z,21.09
2017-06-28T08:51:56.471Z,21.17
2017-06-28T08:52:21.953Z,21.09
2017-06-28T08:52:47.409Z,21.14
2017-06-28T08:53:12.873Z,21.17
2017-06-28T08:53:38.349Z,21.2
2017-06-28T08:54:03.851Z,21.18
2017-06-28T08:54:29.292Z,21.17
2017-06-28T08:54:54.740Z,21.25
2017-06-28T08:55:20.222Z,21.25
2017-06-28T08:55:45.707Z,21.25
2017-06-28T08:56:11.186Z,21.22
2017-06-28T08:56:36.637Z,21.3
2017-06-28T08:57:02.121Z,21.33
2017-06-28T08:57:27.595Z,21.37
2017-06-28T08:57:53.085Z,21.4
2017-06-28T08:58:18.587Z,21.37
2017-06-28T08:58:44.085Z,21.36
2017-06-28T08:59:09.533Z,21.4
2017-06-28T08:59:34.999Z,21.33
2017-06-28T09:00:00.453Z,21.51
2017-06-28T09:00:25.902Z,21.51
2017-06-28T09:00:51.353Z,21.45
2017-06-28T09:01:16.838Z,21.42
2017-06-28T09:01:42.322Z,21.48
2017-06-28T09:02:07.807Z,21.46
2017-06-28T09:02:33.293Z,21.46
2017-06-28T09:02:58.739Z,21.51
2017-06-28T09:03:24.240Z,21.51
2017-06-28T09:03:49.724Z,21.52
2017-06-28T09:04:15.187Z,21.58
2017-06-28T09:04:40.690Z,21.51
2017-06-28T09:05:06.165Z,21.58
2017-06-28T09:05:31.619Z,21.57
2017-06-28T09:05:57.099Z,21.7
2017-06-28T09:06:22.559Z,21.67
2017-06-28T09:06:48.043Z,21.72
2017-06-28T09:07:13.536Z,21.67
2017-06-28T09:07:38.987Z,21.66
2017-06-28T09:08:04.461Z,21.69
2017-06-28T09:08:29.944Z,21.67
2017-06-28T09:08:55.462Z,21.75
2017-06-28T09:09:20.931Z,21.73
2017-06-28T09:09:46.406Z,21.75
2017-06-28T09:10:11.885Z,21.79
2017-06-28T09:10:37.380Z,21.79
2017-06-28T09:11:02.861Z,21.76
2017-06-28T09:11:28.325Z,21.8
2017-06-28T09:11:53.801Z,21.83
2017-06-28T09:12:19.266Z,21.89
2017-06-28T09:12:44.729Z,21.95
2017-06-28T09:13:10.184Z,21.93
2017-06-28T09:13:35.678Z,21.98
2017-06-28T09:14:01.145Z,21.98
2017-06-28T09:14:26.623Z,21.96
2017-06-28T09:14:52.084Z,22.04
2017-06-28T09:15:17.586Z,22
2017-06-28T09:15:43.074Z,21.96
2017-06-28T09:16:08.585Z,21.89
2017-06-28T09:16:34.049Z,22.04
2017-06-28T09:16:59.527Z,21.99
2017-06-28T09:17:24.965Z,22.08
2017-06-28T09:17:50.552Z,22
2017-06-28T09:18:16.083Z,22.02
2017-06-28T09:18:41.540Z,22.14
2017-06-28T09:19:07.025Z,22.04
2017-06-28T09:19:32.523Z,22.15
2017-06-28T09:19:57.994Z,22.22
2017-06-28T09:20:23.477Z,22.11
2017-06-28T09:20:48.916Z,22.14
2017-06-28T09:21:14.407Z,22.18
2017-06-28T09:21:39.917Z,22.23
2017-06-28T09:22:05.378Z,22.22
2017-06-28T09:22:30.836Z,22.22
2017-06-28T09:22:56.320Z,22.26
2017-06-28T09:23:21.798Z,22.32
2017-06-28T09:23:47.265Z,22.35
2017-06-28T09:24:12.747Z,22.32
2017-06-28T09:24:38.239Z,22.38
2017-06-28T09:25:03.705Z,22.33
2017-06-28T09:25:29.160Z,22.44
2017-06-28T09:25:54.654Z,22.36
2017-06-28T09:26:20.088Z,22.43
2017-06-28T09:26:45.564Z,22.48
2017-06-28T09:27:11.015Z,22.5
2017-06-28T09:27:36.535Z,22.51
2017-06-28T09:28:02.046Z,22.59
2017-06-28T09:28:27.526Z,22.55
2017-06-28T09:28:53.023Z,22.57
2017-06-28T09:29:18.525Z,22.63
2017-06-28T09:29:43.978Z,22.68
2017-06-28T09:30:09.462Z,22.6
2017-06-28T09:30:34.917Z,22.63
2017-06-28T09:31:00.399Z,22.72
2017-06-28T09:31:25.846Z,22.7
2017-06-28T09:31:51.312Z,22.62
2017-06-28T09:32:16.786Z,22.66